首页
METAR-TAF:

METAR-TAF

机场 :

新伊斯蘭瑪巴德國際機場

伊斯兰堡, 巴基斯坦

纬度: 33-32-57N, 经度: 072-49-32E, 海拔: 537米

当前天气观测

该预报发布于25分钟前的10:25 UTC
风速12节,风向西北
温度 40°C
湿度 16%
气压 1002 hPa
能見度: 7000
少量云层高于4000英尺

METAR: OPIS 261025Z 31012KT 7000 FEW040 40/09 Q1002 NOSIG

时间: 15:50 (10:50 UTC)

预报

该预报发布于13小时和20分钟前的21:30 UTC
预报有效从26日的 00点(UTC)到 27日的 06点(UTC)
风速8节,风向西南
能見度: 6000
短暂存在
从 26日的 06点(UTC)到 26日的 06点(UTC)
风速15节,风向西北,有时为25节阵风
能見度: 8000
少量云层高于4000英尺
短暂存在
从 26日的 20点(UTC)到 27日的 02点(UTC)
风速6节,风向东北
能見度: 4000

TAF: OPIS 252130Z 2600/2706 23008KT 6000 HZ NSC TEMPO 2606/2606 31015G25KT 8000 FEW040 TEMPO 2620/2702 05006KT 4000 HZ

超过4000个机场的气象观测和天气预报(METAR&TAF报告)。

可查询的气象台以黄色和红色小点在地图上表示。

将鼠标移到小点上方,可查看气象台名称。

然后点击查看天气观测和预报。

如需切换地图:点击带黑十字的绿色按钮放大地图;点击带横线的绿色按钮缩小地图;或者点击绿色箭头查看邻近地区的地图。


METAR-TAF: